Liberty Grace — WADN — position and weather

sailwx.info

Track history (hours):
 
Tides and Currents Weather Stations Pressure Air Temp Water Temp Dewpoint Dewpoint Depression Visibility Wind Speed Wind Dir Waves Ship Positions

Liberty Grace

Owner: Liberty Shipping Group, LLC, LAKE SUCCESS, NY. More information available from US FCC via Universal Licensing System and Coast Guard Vessel Documentation Center.

Last reported at 2016-May-23 06:00 UTC. Time now 2016-May-24 13:48 UTC.
Position N 34°18' W 019°36'.

Type: Cargo ship. MMSI: 338219000.

Wind from 140 at 9 knots

Waves 1.0 meters (3 feet), 1 second period

Barometer 1020.0 mb
Air temperature 17.5 ° C
Visibility: greater than 5.4 NM
Dewpoint 17.0 ° C
Water temperature 28.0 ° C

Date/timePositionNaut miles runAvg speedWind from/ knotsBaromVisibWave heightAir tempDewpointWater temp
2016-May-23 06:00N 34°18' W 019°36'69915.6 140 / 91020.0 5.4 1.017.517.028.0
2016-May-21 09:12N 35°58' W 005°30'913.5
2016-May-21 08:33N 36°01' W 005°19'18715.6
2016-May-20 20:32N 36°31' W 001°30'1414.7
2016-May-20 19:33N 36°34' W 001°13'1615.8
2016-May-20 18:33N 36°36' W 000°53'5116.0
2016-May-20 15:21N 36°42' E 000°10'3215.8
2016-May-20 13:21N 36°49' E 000°49'1315.9
2016-May-20 12:33N 36°51' E 001°04'54214.6
2016-May-18 23:34N 36°56' E 012°22'1515.1
2016-May-18 22:34N 36°48' E 012°38'1514.6
2016-May-18 21:34N 36°41' E 012°53'1514.6
2016-May-18 20:34N 36°35' E 013°10'1515.3
2016-May-18 19:34N 36°29' E 013°27'1515.4
2016-May-18 18:34N 36°23' E 013°45'1515.5
2016-May-18 17:34N 36°16' E 014°02'1515.3
2016-May-18 16:34N 36°09' E 014°19'1515.1
2016-May-18 15:34N 36°01' E 014°35'1212.2
2016-May-18 14:33N 35°53' E 014°46'0 0.1
2016-May-18 13:33N 35°53' E 014°46'0 0.0
2016-May-18 12:33N 35°53' E 014°46'0 0.0
2016-May-18 11:33N 35°53' E 014°46'0 0.0
2016-May-18 10:33N 35°53' E 014°46'0 0.1
2016-May-18 09:33N 35°53' E 014°46'5 4.7
2016-May-18 08:33N 35°48' E 014°48'1111.2
2016-May-18 07:33N 35°45' E 015°01'1615.3
2016-May-18 06:31N 35°44' E 015°20'1614.9
2016-May-18 05:28N 35°40' E 015°39'1614.8
2016-May-18 04:25N 35°35' E 015°57'1415.1
2016-May-18 03:31N 35°31' E 016°13'1915.0
2016-May-18 02:17N 35°26' E 016°35'4714.8
2016-May-17 23:07N 35°13' E 017°30'71814.4
2016-May-15 21:13N 31°56' E 031°18'1015.5
2016-May-15 20:33N 31°53' E 031°30'1615.4
2016-May-15 19:32N 31°48' E 031°48'1414.8
2016-May-15 18:33N 31°42' E 032°03'1514.9
2016-May-15 17:33N 31°31' E 032°15'1211.8
2016-May-15 16:33N 31°21' E 032°23'  
Track history (hours):
 
Tides and Currents Weather Stations Pressure Air Temp Water Temp Dewpoint Dewpoint Depression Visibility Wind Speed Wind Dir Waves Ship Positions

Liberty Grace

Owner: Liberty Shipping Group, LLC, LAKE SUCCESS, NY. More information available from US FCC via Universal Licensing System and Coast Guard Vessel Documentation Center.

Last reported at 2016-May-23 06:00 UTC. Time now 2016-May-24 13:48 UTC.
Position N 34°18' W 019°36'.

Type: Cargo ship. MMSI: 338219000.

Wind from 140 at 9 knots

Waves 1.0 meters (3 feet), 1 second period

Barometer 1020.0 mb
Air temperature 17.5 ° C
Visibility: greater than 5.4 NM
Dewpoint 17.0 ° C
Water temperature 28.0 ° C

Date/timePositionNaut miles runAvg speedWind from/ knotsBaromVisibWave heightAir tempDewpointWater temp
2016-May-23 06:00N 34°18' W 019°36'69915.6 140 / 91020.0 5.4 1.017.517.028.0
2016-May-21 09:12N 35°58' W 005°30'913.5
2016-May-21 08:33N 36°01' W 005°19'18715.6
2016-May-20 20:32N 36°31' W 001°30'1414.7
2016-May-20 19:33N 36°34' W 001°13'1615.8
2016-May-20 18:33N 36°36' W 000°53'5116.0
2016-May-20 15:21N 36°42' E 000°10'3215.8
2016-May-20 13:21N 36°49' E 000°49'1315.9
2016-May-20 12:33N 36°51' E 001°04'54214.6
2016-May-18 23:34N 36°56' E 012°22'1515.1
2016-May-18 22:34N 36°48' E 012°38'1514.6
2016-May-18 21:34N 36°41' E 012°53'1514.6
2016-May-18 20:34N 36°35' E 013°10'1515.3
2016-May-18 19:34N 36°29' E 013°27'1515.4
2016-May-18 18:34N 36°23' E 013°45'1515.5
2016-May-18 17:34N 36°16' E 014°02'1515.3
2016-May-18 16:34N 36°09' E 014°19'1515.1
2016-May-18 15:34N 36°01' E 014°35'1212.2
2016-May-18 14:33N 35°53' E 014°46'0 0.1
2016-May-18 13:33N 35°53' E 014°46'0 0.0
2016-May-18 12:33N 35°53' E 014°46'0 0.0
2016-May-18 11:33N 35°53' E 014°46'0 0.0
2016-May-18 10:33N 35°53' E 014°46'0 0.1
2016-May-18 09:33N 35°53' E 014°46'5 4.7
2016-May-18 08:33N 35°48' E 014°48'1111.2
2016-May-18 07:33N 35°45' E 015°01'1615.3
2016-May-18 06:31N 35°44' E 015°20'1614.9
2016-May-18 05:28N 35°40' E 015°39'1614.8
2016-May-18 04:25N 35°35' E 015°57'1415.1
2016-May-18 03:31N 35°31' E 016°13'1915.0
2016-May-18 02:17N 35°26' E 016°35'4714.8
2016-May-17 23:07N 35°13' E 017°30'71814.4
2016-May-15 21:13N 31°56' E 031°18'1015.5
2016-May-15 20:33N 31°53' E 031°30'1615.4
2016-May-15 19:32N 31°48' E 031°48'1414.8
2016-May-15 18:33N 31°42' E 032°03'1514.9
2016-May-15 17:33N 31°31' E 032°15'1211.8
2016-May-15 16:33N 31°21' E 032°23'  

Dump ship's entire track history